sensor_id;sensor_type;location;lat;lon;timestamp;P1;durP1;ratioP1;P2;durP2;ratioP2
19187;SDS011;9726;52.198;8.792;2023-11-21T00:00:15;76.43;;;30.43;;
19187;SDS011;9726;52.198;8.792;2023-11-21T00:02:43;96.70;;;32.93;;
19187;SDS011;9726;52.198;8.792;2023-11-21T00:05:14;107.97;;;36.10;;
19187;SDS011;9726;52.198;8.792;2023-11-21T00:07:43;105.10;;;38.73;;
19187;SDS011;9726;52.198;8.792;2023-11-21T00:10:11;129.47;;;42.60;;
19187;SDS011;9726;52.198;8.792;2023-11-21T00:12:41;136.20;;;40.73;;
19187;SDS011;9726;52.198;8.792;2023-11-21T00:15:09;139.73;;;43.30;;
19187;SDS011;9726;52.198;8.792;2023-11-21T00:17:40;144.70;;;47.93;;
19187;SDS011;9726;52.198;8.792;2023-11-21T00:20:09;149.27;;;47.43;;
19187;SDS011;9726;52.198;8.792;2023-11-21T00:22:40;136.60;;;44.37;;
19187;SDS011;9726;52.198;8.792;2023-11-21T00:25:08;158.63;;;45.10;;
19187;SDS011;9726;52.198;8.792;2023-11-21T00:27:36;151.33;;;45.50;;
19187;SDS011;9726;52.198;8.792;2023-11-21T00:30:04;138.33;;;43.43;;
19187;SDS011;9726;52.198;8.792;2023-11-21T00:32:33;136.00;;;42.63;;
19187;SDS011;9726;52.198;8.792;2023-11-21T00:35:00;137.73;;;42.80;;
19187;SDS011;9726;52.198;8.792;2023-11-21T00:37:28;148.60;;;45.63;;
19187;SDS011;9726;52.198;8.792;2023-11-21T00:39:57;148.07;;;44.67;;
19187;SDS011;9726;52.198;8.792;2023-11-21T00:42:25;151.07;;;45.90;;
19187;SDS011;9726;52.198;8.792;2023-11-21T00:44:54;137.10;;;45.03;;
19187;SDS011;9726;52.198;8.792;2023-11-21T00:47:21;148.37;;;45.90;;
19187;SDS011;9726;52.198;8.792;2023-11-21T00:49:49;150.77;;;44.93;;
19187;SDS011;9726;52.198;8.792;2023-11-21T00:52:17;154.43;;;45.30;;
19187;SDS011;9726;52.198;8.792;2023-11-21T00:54:44;169.37;;;47.07;;
19187;SDS011;9726;52.198;8.792;2023-11-21T00:57:12;148.03;;;44.10;;
19187;SDS011;9726;52.198;8.792;2023-11-21T00:59:39;159.87;;;44.27;;
19187;SDS011;9726;52.198;8.792;2023-11-21T01:02:07;149.23;;;45.07;;
19187;SDS011;9726;52.198;8.792;2023-11-21T01:04:37;159.70;;;48.20;;
19187;SDS011;9726;52.198;8.792;2023-11-21T01:07:05;165.70;;;44.10;;
19187;SDS011;9726;52.198;8.792;2023-11-21T01:09:32;163.03;;;44.07;;
19187;SDS011;9726;52.198;8.792;2023-11-21T01:12:00;170.33;;;46.47;;
19187;SDS011;9726;52.198;8.792;2023-11-21T01:14:28;174.17;;;45.00;;
19187;SDS011;9726;52.198;8.792;2023-11-21T01:16:57;163.53;;;41.77;;
19187;SDS011;9726;52.198;8.792;2023-11-21T01:19:24;143.27;;;43.00;;
19187;SDS011;9726;52.198;8.792;2023-11-21T01:21:52;171.13;;;44.60;;
19187;SDS011;9726;52.198;8.792;2023-11-21T01:24:20;191.67;;;45.50;;
19187;SDS011;9726;52.198;8.792;2023-11-21T01:26:48;168.13;;;42.03;;
19187;SDS011;9726;52.198;8.792;2023-11-21T01:29:16;161.67;;;44.50;;
19187;SDS011;9726;52.198;8.792;2023-11-21T01:31:44;164.07;;;44.93;;
19187;SDS011;9726;52.198;8.792;2023-11-21T01:34:11;153.67;;;41.50;;
19187;SDS011;9726;52.198;8.792;2023-11-21T01:36:39;166.83;;;45.60;;
19187;SDS011;9726;52.198;8.792;2023-11-21T01:39:07;153.10;;;42.33;;
19187;SDS011;9726;52.198;8.792;2023-11-21T01:41:35;176.97;;;44.17;;
19187;SDS011;9726;52.198;8.792;2023-11-21T01:44:03;168.90;;;43.47;;
19187;SDS011;9726;52.198;8.792;2023-11-21T01:46:34;171.23;;;43.40;;
19187;SDS011;9726;52.198;8.792;2023-11-21T01:49:02;162.90;;;42.37;;
19187;SDS011;9726;52.198;8.792;2023-11-21T01:51:30;143.00;;;40.17;;
19187;SDS011;9726;52.198;8.792;2023-11-21T01:53:58;184.20;;;41.70;;
19187;SDS011;9726;52.198;8.792;2023-11-21T01:56:26;159.13;;;43.87;;
19187;SDS011;9726;52.198;8.792;2023-11-21T01:58:54;148.87;;;41.13;;
19187;SDS011;9726;52.198;8.792;2023-11-21T02:01:22;137.73;;;40.87;;
19187;SDS011;9726;52.198;8.792;2023-11-21T02:03:50;156.00;;;42.57;;
19187;SDS011;9726;52.198;8.792;2023-11-21T02:06:17;163.57;;;41.90;;
19187;SDS011;9726;52.198;8.792;2023-11-21T02:08:45;167.10;;;42.37;;
19187;SDS011;9726;52.198;8.792;2023-11-21T02:11:13;156.57;;;40.50;;
19187;SDS011;9726;52.198;8.792;2023-11-21T02:13:41;154.93;;;39.80;;
19187;SDS011;9726;52.198;8.792;2023-11-21T02:16:10;161.10;;;39.90;;
19187;SDS011;9726;52.198;8.792;2023-11-21T02:18:39;153.03;;;42.33;;
19187;SDS011;9726;52.198;8.792;2023-11-21T02:21:08;146.83;;;41.53;;
19187;SDS011;9726;52.198;8.792;2023-11-21T02:23:36;149.43;;;41.97;;
19187;SDS011;9726;52.198;8.792;2023-11-21T02:26:08;165.60;;;39.47;;
19187;SDS011;9726;52.198;8.792;2023-11-21T02:28:36;152.00;;;40.00;;
19187;SDS011;9726;52.198;8.792;2023-11-21T02:31:05;163.00;;;41.13;;
19187;SDS011;9726;52.198;8.792;2023-11-21T02:33:34;155.20;;;41.13;;
19187;SDS011;9726;52.198;8.792;2023-11-21T02:36:02;150.50;;;36.13;;
19187;SDS011;9726;52.198;8.792;2023-11-21T02:38:29;150.90;;;38.33;;
19187;SDS011;9726;52.198;8.792;2023-11-21T02:40:57;132.53;;;37.70;;
19187;SDS011;9726;52.198;8.792;2023-11-21T02:43:26;138.03;;;35.53;;
19187;SDS011;9726;52.198;8.792;2023-11-21T02:45:54;129.77;;;37.17;;
19187;SDS011;9726;52.198;8.792;2023-11-21T02:48:22;147.10;;;37.60;;
19187;SDS011;9726;52.198;8.792;2023-11-21T02:50:52;111.77;;;35.83;;
19187;SDS011;9726;52.198;8.792;2023-11-21T02:53:20;145.57;;;36.27;;
19187;SDS011;9726;52.198;8.792;2023-11-21T02:55:47;147.47;;;35.97;;
19187;SDS011;9726;52.198;8.792;2023-11-21T02:58:15;124.53;;;33.83;;
19187;SDS011;9726;52.198;8.792;2023-11-21T03:00:42;112.97;;;32.67;;
19187;SDS011;9726;52.198;8.792;2023-11-21T03:03:10;126.97;;;32.97;;
19187;SDS011;9726;52.198;8.792;2023-11-21T03:05:38;118.50;;;33.43;;
19187;SDS011;9726;52.198;8.792;2023-11-21T03:08:06;102.03;;;32.03;;
19187;SDS011;9726;52.198;8.792;2023-11-21T03:10:34;111.53;;;34.97;;
19187;SDS011;9726;52.198;8.792;2023-11-21T03:13:02;116.37;;;33.67;;
19187;SDS011;9726;52.198;8.792;2023-11-21T03:15:31;108.53;;;31.87;;
19187;SDS011;9726;52.198;8.792;2023-11-21T03:17:59;109.83;;;32.87;;
19187;SDS011;9726;52.198;8.792;2023-11-21T03:20:27;115.43;;;33.23;;
19187;SDS011;9726;52.198;8.792;2023-11-21T03:22:56;109.57;;;32.50;;
19187;SDS011;9726;52.198;8.792;2023-11-21T03:25:23;125.83;;;33.90;;
19187;SDS011;9726;52.198;8.792;2023-11-21T03:27:51;112.30;;;32.17;;
19187;SDS011;9726;52.198;8.792;2023-11-21T03:30:19;127.07;;;32.87;;
19187;SDS011;9726;52.198;8.792;2023-11-21T03:32:47;125.73;;;33.60;;
19187;SDS011;9726;52.198;8.792;2023-11-21T03:35:15;115.10;;;33.53;;
19187;SDS011;9726;52.198;8.792;2023-11-21T03:37:43;105.70;;;32.00;;
19187;SDS011;9726;52.198;8.792;2023-11-21T03:40:11;120.73;;;32.27;;
19187;SDS011;9726;52.198;8.792;2023-11-21T03:42:39;121.97;;;34.10;;
19187;SDS011;9726;52.198;8.792;2023-11-21T03:45:08;118.90;;;32.47;;
19187;SDS011;9726;52.198;8.792;2023-11-21T03:47:35;117.00;;;31.97;;
19187;SDS011;9726;52.198;8.792;2023-11-21T03:50:03;133.20;;;32.53;;
19187;SDS011;9726;52.198;8.792;2023-11-21T03:52:31;128.57;;;32.70;;
19187;SDS011;9726;52.198;8.792;2023-11-21T03:54:59;124.13;;;33.17;;
19187;SDS011;9726;52.198;8.792;2023-11-21T03:57:27;120.63;;;31.07;;
19187;SDS011;9726;52.198;8.792;2023-11-21T03:59:54;134.77;;;31.40;;
19187;SDS011;9726;52.198;8.792;2023-11-21T04:02:22;126.40;;;33.60;;
19187;SDS011;9726;52.198;8.792;2023-11-21T04:04:51;133.30;;;33.00;;
19187;SDS011;9726;52.198;8.792;2023-11-21T04:07:19;135.67;;;31.50;;
19187;SDS011;9726;52.198;8.792;2023-11-21T04:09:48;134.50;;;32.90;;
19187;SDS011;9726;52.198;8.792;2023-11-21T04:12:16;122.73;;;33.27;;
19187;SDS011;9726;52.198;8.792;2023-11-21T04:14:43;120.97;;;32.47;;
19187;SDS011;9726;52.198;8.792;2023-11-21T04:17:11;115.13;;;31.50;;
19187;SDS011;9726;52.198;8.792;2023-11-21T04:19:38;118.97;;;31.83;;
19187;SDS011;9726;52.198;8.792;2023-11-21T04:22:06;115.63;;;33.20;;
19187;SDS011;9726;52.198;8.792;2023-11-21T04:24:33;128.97;;;33.50;;
19187;SDS011;9726;52.198;8.792;2023-11-21T04:27:01;123.27;;;32.50;;
19187;SDS011;9726;52.198;8.792;2023-11-21T04:29:29;118.03;;;32.00;;
19187;SDS011;9726;52.198;8.792;2023-11-21T04:31:57;132.17;;;32.20;;
19187;SDS011;9726;52.198;8.792;2023-11-21T04:34:24;134.07;;;33.67;;
19187;SDS011;9726;52.198;8.792;2023-11-21T04:36:52;103.57;;;33.50;;
19187;SDS011;9726;52.198;8.792;2023-11-21T04:39:19;135.53;;;34.70;;
19187;SDS011;9726;52.198;8.792;2023-11-21T04:41:47;120.73;;;34.40;;
19187;SDS011;9726;52.198;8.792;2023-11-21T04:44:14;139.87;;;35.00;;
19187;SDS011;9726;52.198;8.792;2023-11-21T04:46:43;135.57;;;34.67;;
19187;SDS011;9726;52.198;8.792;2023-11-21T04:49:11;119.83;;;31.87;;
19187;SDS011;9726;52.198;8.792;2023-11-21T04:51:39;138.00;;;33.50;;
19187;SDS011;9726;52.198;8.792;2023-11-21T04:54:06;114.93;;;31.67;;
19187;SDS011;9726;52.198;8.792;2023-11-21T04:56:34;113.57;;;30.70;;
19187;SDS011;9726;52.198;8.792;2023-11-21T04:59:01;121.17;;;30.53;;
19187;SDS011;9726;52.198;8.792;2023-11-21T05:01:29;112.97;;;31.03;;
19187;SDS011;9726;52.198;8.792;2023-11-21T05:03:57;128.33;;;33.77;;
19187;SDS011;9726;52.198;8.792;2023-11-21T05:06:24;131.70;;;32.47;;
19187;SDS011;9726;52.198;8.792;2023-11-21T05:08:52;129.77;;;32.53;;
19187;SDS011;9726;52.198;8.792;2023-11-21T05:11:23;100.37;;;29.73;;
19187;SDS011;9726;52.198;8.792;2023-11-21T05:13:51;121.57;;;30.47;;
19187;SDS011;9726;52.198;8.792;2023-11-21T05:16:19;112.37;;;30.07;;
19187;SDS011;9726;52.198;8.792;2023-11-21T05:18:47;108.23;;;28.97;;
19187;SDS011;9726;52.198;8.792;2023-11-21T05:21:17;93.83;;;28.37;;
19187;SDS011;9726;52.198;8.792;2023-11-21T05:23:47;101.00;;;28.77;;
19187;SDS011;9726;52.198;8.792;2023-11-21T05:26:15;128.40;;;29.43;;
19187;SDS011;9726;52.198;8.792;2023-11-21T05:28:42;109.93;;;31.60;;
19187;SDS011;9726;52.198;8.792;2023-11-21T05:31:10;104.47;;;30.70;;
19187;SDS011;9726;52.198;8.792;2023-11-21T05:33:42;103.53;;;29.07;;
19187;SDS011;9726;52.198;8.792;2023-11-21T05:36:13;103.73;;;29.83;;
19187;SDS011;9726;52.198;8.792;2023-11-21T05:38:40;111.57;;;29.30;;
19187;SDS011;9726;52.198;8.792;2023-11-21T05:41:09;94.30;;;29.47;;
19187;SDS011;9726;52.198;8.792;2023-11-21T05:43:40;101.43;;;28.80;;
19187;SDS011;9726;52.198;8.792;2023-11-21T05:46:08;109.13;;;29.87;;
19187;SDS011;9726;52.198;8.792;2023-11-21T05:48:35;95.93;;;28.87;;
19187;SDS011;9726;52.198;8.792;2023-11-21T05:51:06;101.13;;;29.87;;
19187;SDS011;9726;52.198;8.792;2023-11-21T05:53:35;104.27;;;29.50;;
19187;SDS011;9726;52.198;8.792;2023-11-21T05:56:03;118.43;;;33.67;;
19187;SDS011;9726;52.198;8.792;2023-11-21T05:58:31;133.48;;;38.97;;
19187;SDS011;9726;52.198;8.792;2023-11-21T06:00:59;105.27;;;32.00;;
19187;SDS011;9726;52.198;8.792;2023-11-21T06:03:26;103.00;;;29.37;;
19187;SDS011;9726;52.198;8.792;2023-11-21T06:05:54;113.60;;;27.40;;
19187;SDS011;9726;52.198;8.792;2023-11-21T06:08:22;92.10;;;28.60;;
19187;SDS011;9726;52.198;8.792;2023-11-21T06:10:49;109.57;;;27.37;;
19187;SDS011;9726;52.198;8.792;2023-11-21T06:13:17;107.77;;;29.33;;
19187;SDS011;9726;52.198;8.792;2023-11-21T06:15:51;105.50;;;30.27;;
19187;SDS011;9726;52.198;8.792;2023-11-21T06:18:19;93.70;;;28.63;;
19187;SDS011;9726;52.198;8.792;2023-11-21T06:20:46;116.37;;;30.67;;
19187;SDS011;9726;52.198;8.792;2023-11-21T06:23:14;107.10;;;31.17;;
19187;SDS011;9726;52.198;8.792;2023-11-21T06:25:43;101.77;;;29.47;;
19187;SDS011;9726;52.198;8.792;2023-11-21T06:28:11;108.53;;;29.97;;
19187;SDS011;9726;52.198;8.792;2023-11-21T06:30:38;116.93;;;29.47;;
19187;SDS011;9726;52.198;8.792;2023-11-21T06:33:06;120.23;;;30.87;;
19187;SDS011;9726;52.198;8.792;2023-11-21T06:35:34;122.10;;;30.63;;
19187;SDS011;9726;52.198;8.792;2023-11-21T06:38:02;106.43;;;30.83;;
19187;SDS011;9726;52.198;8.792;2023-11-21T06:40:30;117.90;;;31.37;;
19187;SDS011;9726;52.198;8.792;2023-11-21T06:43:00;107.07;;;31.13;;
19187;SDS011;9726;52.198;8.792;2023-11-21T06:45:28;119.20;;;34.10;;
19187;SDS011;9726;52.198;8.792;2023-11-21T06:47:55;121.53;;;34.13;;
19187;SDS011;9726;52.198;8.792;2023-11-21T06:50:23;118.43;;;33.03;;
19187;SDS011;9726;52.198;8.792;2023-11-21T06:52:53;107.83;;;32.80;;
19187;SDS011;9726;52.198;8.792;2023-11-21T06:55:20;103.53;;;31.57;;
19187;SDS011;9726;52.198;8.792;2023-11-21T06:57:48;106.87;;;30.77;;
19187;SDS011;9726;52.198;8.792;2023-11-21T07:00:16;154.13;;;50.77;;
19187;SDS011;9726;52.198;8.792;2023-11-21T07:02:44;127.07;;;37.13;;
19187;SDS011;9726;52.198;8.792;2023-11-21T07:05:12;99.67;;;28.50;;
19187;SDS011;9726;52.198;8.792;2023-11-21T07:07:42;110.63;;;28.93;;
19187;SDS011;9726;52.198;8.792;2023-11-21T07:10:10;110.03;;;32.00;;
19187;SDS011;9726;52.198;8.792;2023-11-21T07:12:37;96.87;;;27.57;;
19187;SDS011;9726;52.198;8.792;2023-11-21T07:15:06;101.90;;;31.03;;
19187;SDS011;9726;52.198;8.792;2023-11-21T07:17:36;79.07;;;26.27;;
19187;SDS011;9726;52.198;8.792;2023-11-21T07:20:07;120.00;;;30.10;;
19187;SDS011;9726;52.198;8.792;2023-11-21T07:22:35;97.93;;;27.63;;
19187;SDS011;9726;52.198;8.792;2023-11-21T07:25:02;110.67;;;29.77;;
19187;SDS011;9726;52.198;8.792;2023-11-21T07:27:30;95.37;;;28.40;;
19187;SDS011;9726;52.198;8.792;2023-11-21T07:30:00;99.93;;;28.47;;
19187;SDS011;9726;52.198;8.792;2023-11-21T07:32:31;88.70;;;25.63;;
19187;SDS011;9726;52.198;8.792;2023-11-21T07:34:59;88.33;;;24.17;;
19187;SDS011;9726;52.198;8.792;2023-11-21T07:37:28;74.20;;;23.03;;
19187;SDS011;9726;52.198;8.792;2023-11-21T07:39:55;89.57;;;24.57;;
19187;SDS011;9726;52.198;8.792;2023-11-21T07:42:23;82.23;;;23.67;;
19187;SDS011;9726;52.198;8.792;2023-11-21T07:44:52;73.23;;;22.17;;
19187;SDS011;9726;52.198;8.792;2023-11-21T07:47:20;113.27;;;22.70;;
19187;SDS011;9726;52.198;8.792;2023-11-21T07:49:48;74.17;;;19.80;;
19187;SDS011;9726;52.198;8.792;2023-11-21T07:52:15;57.97;;;19.03;;
19187;SDS011;9726;52.198;8.792;2023-11-21T07:54:43;56.77;;;18.33;;
19187;SDS011;9726;52.198;8.792;2023-11-21T07:57:10;135.27;;;22.33;;
19187;SDS011;9726;52.198;8.792;2023-11-21T07:59:43;42.37;;;17.50;;
19187;SDS011;9726;52.198;8.792;2023-11-21T08:02:11;42.00;;;16.53;;
19187;SDS011;9726;52.198;8.792;2023-11-21T08:04:38;37.10;;;15.90;;
19187;SDS011;9726;52.198;8.792;2023-11-21T08:07:06;39.13;;;16.47;;
19187;SDS011;9726;52.198;8.792;2023-11-21T08:09:34;37.57;;;16.83;;
19187;SDS011;9726;52.198;8.792;2023-11-21T08:12:01;48.57;;;15.50;;
19187;SDS011;9726;52.198;8.792;2023-11-21T08:14:29;65.23;;;19.20;;
19187;SDS011;9726;52.198;8.792;2023-11-21T08:16:57;50.50;;;18.30;;
19187;SDS011;9726;52.198;8.792;2023-11-21T08:19:25;51.17;;;19.27;;
19187;SDS011;9726;52.198;8.792;2023-11-21T08:21:53;62.87;;;20.10;;
19187;SDS011;9726;52.198;8.792;2023-11-21T08:24:22;73.13;;;21.70;;
19187;SDS011;9726;52.198;8.792;2023-11-21T08:26:49;58.07;;;22.60;;
19187;SDS011;9726;52.198;8.792;2023-11-21T08:29:18;62.47;;;22.27;;
19187;SDS011;9726;52.198;8.792;2023-11-21T08:31:46;65.90;;;23.60;;
19187;SDS011;9726;52.198;8.792;2023-11-21T08:34:13;82.13;;;24.07;;
19187;SDS011;9726;52.198;8.792;2023-11-21T08:36:42;77.57;;;22.13;;
19187;SDS011;9726;52.198;8.792;2023-11-21T08:39:10;65.87;;;21.00;;
19187;SDS011;9726;52.198;8.792;2023-11-21T08:41:37;72.20;;;19.67;;
19187;SDS011;9726;52.198;8.792;2023-11-21T08:44:05;80.13;;;20.63;;
19187;SDS011;9726;52.198;8.792;2023-11-21T08:46:34;128.93;;;21.93;;
19187;SDS011;9726;52.198;8.792;2023-11-21T08:49:03;45.90;;;15.20;;
19187;SDS011;9726;52.198;8.792;2023-11-21T08:51:31;66.37;;;15.97;;
19187;SDS011;9726;52.198;8.792;2023-11-21T08:53:58;129.00;;;17.03;;
19187;SDS011;9726;52.198;8.792;2023-11-21T08:56:28;34.63;;;14.13;;
19187;SDS011;9726;52.198;8.792;2023-11-21T08:58:56;37.90;;;11.83;;
19187;SDS011;9726;52.198;8.792;2023-11-21T09:01:23;30.60;;;11.70;;
19187;SDS011;9726;52.198;8.792;2023-11-21T09:03:57;34.13;;;12.37;;
19187;SDS011;9726;52.198;8.792;2023-11-21T09:06:25;40.47;;;12.10;;
19187;SDS011;9726;52.198;8.792;2023-11-21T09:08:52;40.10;;;11.60;;
19187;SDS011;9726;52.198;8.792;2023-11-21T09:11:20;34.73;;;10.30;;
19187;SDS011;9726;52.198;8.792;2023-11-21T09:13:47;42.37;;;11.23;;
19187;SDS011;9726;52.198;8.792;2023-11-21T09:16:15;42.90;;;12.43;;
19187;SDS011;9726;52.198;8.792;2023-11-21T09:18:42;37.67;;;11.07;;
19187;SDS011;9726;52.198;8.792;2023-11-21T09:21:11;39.67;;;10.17;;
19187;SDS011;9726;52.198;8.792;2023-11-21T09:23:40;29.03;;;10.73;;
19187;SDS011;9726;52.198;8.792;2023-11-21T09:26:07;46.27;;;10.30;;
19187;SDS011;9726;52.198;8.792;2023-11-21T09:28:36;28.00;;;9.87;;
19187;SDS011;9726;52.198;8.792;2023-11-21T09:31:09;34.67;;;10.60;;
19187;SDS011;9726;52.198;8.792;2023-11-21T09:33:36;35.27;;;10.63;;
19187;SDS011;9726;52.198;8.792;2023-11-21T09:36:04;27.83;;;10.20;;
19187;SDS011;9726;52.198;8.792;2023-11-21T09:38:32;27.43;;;10.53;;
19187;SDS011;9726;52.198;8.792;2023-11-21T09:40:59;23.93;;;10.67;;
19187;SDS011;9726;52.198;8.792;2023-11-21T09:43:28;31.57;;;11.13;;
19187;SDS011;9726;52.198;8.792;2023-11-21T09:45:59;25.87;;;10.37;;
19187;SDS011;9726;52.198;8.792;2023-11-21T09:48:27;21.93;;;10.97;;
19187;SDS011;9726;52.198;8.792;2023-11-21T09:50:56;35.17;;;11.83;;
19187;SDS011;9726;52.198;8.792;2023-11-21T09:53:24;25.47;;;13.17;;
19187;SDS011;9726;52.198;8.792;2023-11-21T09:55:53;37.20;;;13.00;;
19187;SDS011;9726;52.198;8.792;2023-11-21T09:58:23;33.90;;;14.03;;
19187;SDS011;9726;52.198;8.792;2023-11-21T10:00:53;30.90;;;13.17;;
19187;SDS011;9726;52.198;8.792;2023-11-21T10:03:20;32.17;;;14.50;;
19187;SDS011;9726;52.198;8.792;2023-11-21T10:05:48;27.23;;;13.67;;
19187;SDS011;9726;52.198;8.792;2023-11-21T10:08:17;26.20;;;12.17;;
19187;SDS011;9726;52.198;8.792;2023-11-21T10:10:45;22.27;;;11.87;;
19187;SDS011;9726;52.198;8.792;2023-11-21T10:13:15;24.07;;;13.60;;
19187;SDS011;9726;52.198;8.792;2023-11-21T10:15:44;26.63;;;11.97;;
19187;SDS011;9726;52.198;8.792;2023-11-21T10:18:15;28.17;;;12.17;;
19187;SDS011;9726;52.198;8.792;2023-11-21T10:20:44;20.60;;;11.27;;
19187;SDS011;9726;52.198;8.792;2023-11-21T10:23:20;24.40;;;12.53;;
19187;SDS011;9726;52.198;8.792;2023-11-21T10:25:50;23.63;;;13.30;;
19187;SDS011;9726;52.198;8.792;2023-11-21T10:28:18;23.90;;;12.37;;
19187;SDS011;9726;52.198;8.792;2023-11-21T10:30:47;27.33;;;13.63;;
19187;SDS011;9726;52.198;8.792;2023-11-21T10:33:15;24.97;;;12.53;;
19187;SDS011;9726;52.198;8.792;2023-11-21T10:35:46;30.67;;;13.83;;
19187;SDS011;9726;52.198;8.792;2023-11-21T10:38:18;32.33;;;13.90;;
19187;SDS011;9726;52.198;8.792;2023-11-21T10:40:47;29.53;;;15.40;;
19187;SDS011;9726;52.198;8.792;2023-11-21T10:43:16;29.57;;;15.60;;
19187;SDS011;9726;52.198;8.792;2023-11-21T10:45:44;36.87;;;16.37;;
19187;SDS011;9726;52.198;8.792;2023-11-21T10:48:15;36.43;;;17.13;;
19187;SDS011;9726;52.198;8.792;2023-11-21T10:50:43;34.90;;;16.73;;
19187;SDS011;9726;52.198;8.792;2023-11-21T10:53:12;35.67;;;16.57;;
19187;SDS011;9726;52.198;8.792;2023-11-21T10:55:40;31.17;;;16.30;;
19187;SDS011;9726;52.198;8.792;2023-11-21T10:58:08;31.97;;;15.13;;
19187;SDS011;9726;52.198;8.792;2023-11-21T11:00:37;26.23;;;14.67;;
19187;SDS011;9726;52.198;8.792;2023-11-21T11:03:07;29.33;;;15.03;;
19187;SDS011;9726;52.198;8.792;2023-11-21T11:05:43;26.70;;;14.00;;
19187;SDS011;9726;52.198;8.792;2023-11-21T11:08:21;24.70;;;13.20;;
19187;SDS011;9726;52.198;8.792;2023-11-21T11:10:53;26.37;;;14.20;;
19187;SDS011;9726;52.198;8.792;2023-11-21T11:13:21;26.40;;;13.03;;
19187;SDS011;9726;52.198;8.792;2023-11-21T11:15:50;22.83;;;13.17;;
19187;SDS011;9726;52.198;8.792;2023-11-21T11:18:17;20.20;;;11.73;;
19187;SDS011;9726;52.198;8.792;2023-11-21T11:20:47;26.00;;;13.00;;
19187;SDS011;9726;52.198;8.792;2023-11-21T11:28:40;24.53;;;12.50;;
19187;SDS011;9726;52.198;8.792;2023-11-21T11:31:19;23.80;;;13.30;;
19187;SDS011;9726;52.198;8.792;2023-11-21T11:34:08;24.27;;;12.93;;
19187;SDS011;9726;52.198;8.792;2023-11-21T11:36:54;27.70;;;13.57;;
19187;SDS011;9726;52.198;8.792;2023-11-21T11:42:04;24.93;;;11.60;;
19187;SDS011;9726;52.198;8.792;2023-11-21T11:50:05;20.67;;;12.13;;
19187;SDS011;9726;52.198;8.792;2023-11-21T11:52:41;20.17;;;11.70;;
19187;SDS011;9726;52.198;8.792;2023-11-21T11:55:10;23.53;;;11.67;;
19187;SDS011;9726;52.198;8.792;2023-11-21T11:57:45;20.13;;;11.43;;
19187;SDS011;9726;52.198;8.792;2023-11-21T12:00:19;24.80;;;11.10;;
19187;SDS011;9726;52.198;8.792;2023-11-21T12:02:54;16.77;;;10.67;;
19187;SDS011;9726;52.198;8.792;2023-11-21T12:05:26;21.73;;;11.20;;
19187;SDS011;9726;52.198;8.792;2023-11-21T12:08:00;21.87;;;11.17;;
19187;SDS011;9726;52.198;8.792;2023-11-21T12:10:30;19.73;;;10.30;;
19187;SDS011;9726;52.198;8.792;2023-11-21T12:13:03;16.13;;;10.13;;
19187;SDS011;9726;52.198;8.792;2023-11-21T12:15:34;13.40;;;8.93;;
19187;SDS011;9726;52.198;8.792;2023-11-21T12:18:03;19.20;;;9.27;;
19187;SDS011;9726;52.198;8.792;2023-11-21T12:20:30;18.93;;;9.57;;
19187;SDS011;9726;52.198;8.792;2023-11-21T12:22:59;18.13;;;9.13;;
19187;SDS011;9726;52.198;8.792;2023-11-21T12:25:27;20.77;;;10.03;;
19187;SDS011;9726;52.198;8.792;2023-11-21T12:27:56;21.97;;;9.93;;
19187;SDS011;9726;52.198;8.792;2023-11-21T12:30:25;16.87;;;9.87;;
19187;SDS011;9726;52.198;8.792;2023-11-21T12:32:59;15.53;;;9.20;;
19187;SDS011;9726;52.198;8.792;2023-11-21T12:35:28;17.03;;;9.77;;
19187;SDS011;9726;52.198;8.792;2023-11-21T12:37:57;18.93;;;9.13;;
19187;SDS011;9726;52.198;8.792;2023-11-21T12:40:25;18.67;;;8.53;;
19187;SDS011;9726;52.198;8.792;2023-11-21T12:42:55;15.07;;;9.63;;
19187;SDS011;9726;52.198;8.792;2023-11-21T12:45:25;14.93;;;8.87;;
19187;SDS011;9726;52.198;8.792;2023-11-21T12:47:56;14.93;;;7.77;;
19187;SDS011;9726;52.198;8.792;2023-11-21T12:50:27;13.33;;;8.47;;
19187;SDS011;9726;52.198;8.792;2023-11-21T12:52:59;12.93;;;7.83;;
19187;SDS011;9726;52.198;8.792;2023-11-21T12:55:30;12.27;;;8.07;;
19187;SDS011;9726;52.198;8.792;2023-11-21T12:58:00;15.10;;;9.07;;
19187;SDS011;9726;52.198;8.792;2023-11-21T13:00:40;13.37;;;7.87;;
19187;SDS011;9726;52.198;8.792;2023-11-21T13:03:15;14.10;;;7.93;;
19187;SDS011;9726;52.198;8.792;2023-11-21T13:05:51;12.67;;;7.83;;
19187;SDS011;9726;52.198;8.792;2023-11-21T13:08:21;15.03;;;8.53;;
19187;SDS011;9726;52.198;8.792;2023-11-21T13:10:54;13.70;;;7.70;;
19187;SDS011;9726;52.198;8.792;2023-11-21T13:13:24;12.73;;;7.70;;
19187;SDS011;9726;52.198;8.792;2023-11-21T13:15:55;17.37;;;8.17;;
19187;SDS011;9726;52.198;8.792;2023-11-21T13:18:27;13.57;;;8.73;;
19187;SDS011;9726;52.198;8.792;2023-11-21T13:20:55;18.60;;;8.07;;
19187;SDS011;9726;52.198;8.792;2023-11-21T13:23:24;14.60;;;7.23;;
19187;SDS011;9726;52.198;8.792;2023-11-21T13:25:53;12.43;;;8.03;;
19187;SDS011;9726;52.198;8.792;2023-11-21T13:28:31;15.10;;;7.97;;
19187;SDS011;9726;52.198;8.792;2023-11-21T13:31:00;19.27;;;8.00;;
19187;SDS011;9726;52.198;8.792;2023-11-21T13:33:31;16.07;;;7.87;;
19187;SDS011;9726;52.198;8.792;2023-11-21T13:36:00;15.33;;;8.20;;
19187;SDS011;9726;52.198;8.792;2023-11-21T13:38:28;12.57;;;7.23;;
19187;SDS011;9726;52.198;8.792;2023-11-21T13:40:59;14.07;;;7.77;;
19187;SDS011;9726;52.198;8.792;2023-11-21T13:43:27;16.83;;;8.07;;
19187;SDS011;9726;52.198;8.792;2023-11-21T13:45:55;19.63;;;8.70;;
19187;SDS011;9726;52.198;8.792;2023-11-21T13:48:44;13.30;;;7.43;;
19187;SDS011;9726;52.198;8.792;2023-11-21T13:51:18;10.90;;;7.03;;
19187;SDS011;9726;52.198;8.792;2023-11-21T13:53:47;14.43;;;8.03;;
19187;SDS011;9726;52.198;8.792;2023-11-21T13:56:19;17.63;;;8.40;;
19187;SDS011;9726;52.198;8.792;2023-11-21T13:58:51;16.43;;;7.07;;
19187;SDS011;9726;52.198;8.792;2023-11-21T14:01:23;14.03;;;7.93;;
19187;SDS011;9726;52.198;8.792;2023-11-21T14:06:35;17.20;;;7.60;;
19187;SDS011;9726;52.198;8.792;2023-11-21T14:09:18;14.77;;;8.07;;
19187;SDS011;9726;52.198;8.792;2023-11-21T14:11:54;13.40;;;6.87;;
19187;SDS011;9726;52.198;8.792;2023-11-21T14:14:23;11.83;;;7.57;;
19187;SDS011;9726;52.198;8.792;2023-11-21T14:16:55;15.10;;;8.77;;
19187;SDS011;9726;52.198;8.792;2023-11-21T14:19:22;14.67;;;8.03;;
19187;SDS011;9726;52.198;8.792;2023-11-21T14:21:54;12.03;;;8.50;;
19187;SDS011;9726;52.198;8.792;2023-11-21T14:24:21;11.00;;;6.93;;
19187;SDS011;9726;52.198;8.792;2023-11-21T14:26:51;14.90;;;7.73;;
19187;SDS011;9726;52.198;8.792;2023-11-21T14:29:19;15.10;;;8.43;;
19187;SDS011;9726;52.198;8.792;2023-11-21T14:31:47;14.20;;;7.93;;
19187;SDS011;9726;52.198;8.792;2023-11-21T14:34:15;13.83;;;7.87;;
19187;SDS011;9726;52.198;8.792;2023-11-21T14:36:48;11.37;;;6.43;;
19187;SDS011;9726;52.198;8.792;2023-11-21T14:39:16;14.57;;;7.17;;
19187;SDS011;9726;52.198;8.792;2023-11-21T14:41:53;14.80;;;8.10;;
19187;SDS011;9726;52.198;8.792;2023-11-21T14:44:22;14.30;;;7.30;;
19187;SDS011;9726;52.198;8.792;2023-11-21T14:46:53;15.33;;;8.43;;
19187;SDS011;9726;52.198;8.792;2023-11-21T14:49:24;17.40;;;7.93;;
19187;SDS011;9726;52.198;8.792;2023-11-21T14:51:54;14.97;;;7.73;;
19187;SDS011;9726;52.198;8.792;2023-11-21T14:54:34;16.87;;;7.67;;
19187;SDS011;9726;52.198;8.792;2023-11-21T14:57:07;16.97;;;8.00;;